Time;durP1;ratioP1;P1;durP2;ratioP2;P2;SDS_P1;SDS_P2;PMS_P1;PMS_P2;Temp;Humidity;BMP_temperature;BMP_pressure;BME280_temperature;BME280_humidity;BME280_pressure;Samples;Min_cycle;Max_cycle;Signal;HPM_P1;HPM_P2
2021/10/19 04:02:35;;;;;;;19.23;13.75;;;11.00;99.90;;;;;;5005795;23;20244;-70
2021/10/19 04:05:02;;;;;;;19.52;13.68;;;11.00;99.90;;;;;;4948093;29;20269;-72
2021/10/19 04:07:28;;;;;;;21.98;15.25;;;11.00;99.90;;;;;;4953273;28;20209;-72
2021/10/19 04:09:55;;;;;;;16.83;14.23;;;11.00;99.90;;;;;;4950660;28;20209;-72
2021/10/19 04:12:22;;;;;;;20.05;16.05;;;11.00;99.90;;;;;;4955727;28;20225;-74
2021/10/19 04:14:48;;;;;;;19.88;14.20;;;11.00;99.90;;;;;;4948531;29;20214;-71
2021/10/19 04:17:16;;;;;;;19.88;15.15;;;11.00;99.90;;;;;;4935832;29;20230;-72
2021/10/19 04:19:44;;;;;;;18.85;14.23;;;11.00;99.90;;;;;;4937466;29;20276;-72
2021/10/19 04:22:10;;;;;;;21.13;14.80;;;11.00;99.90;;;;;;4936778;29;20225;-72
2021/10/19 04:24:37;;;;;;;20.08;14.52;;;11.00;99.90;;;;;;4937239;29;20289;-72
2021/10/19 04:27:04;;;;;;;20.92;14.88;;;11.10;99.90;;;;;;4937038;29;20213;-72
2021/10/19 04:29:31;;;;;;;17.90;13.75;;;11.10;99.90;;;;;;4937128;29;20655;-72
2021/10/19 04:31:57;;;;;;;20.48;14.75;;;11.10;99.90;;;;;;4937114;29;20776;-72
2021/10/19 04:34:24;;;;;;;23.13;15.30;;;11.10;99.90;;;;;;4936777;29;20550;-72
2021/10/19 04:36:52;;;;;;;20.20;15.07;;;11.10;99.90;;;;;;4936962;29;20265;-72
2021/10/19 04:39:19;;;;;;;26.63;17.90;;;11.10;99.90;;;;;;4928919;29;20206;-72
2021/10/19 04:41:45;;;;;;;24.08;15.20;;;11.10;99.90;;;;;;4936381;29;20696;-72
2021/10/19 04:44:13;;;;;;;19.63;15.18;;;11.10;99.90;;;;;;4936991;29;20261;-72
2021/10/19 04:46:40;;;;;;;17.73;15.25;;;11.10;99.90;;;;;;4937201;29;20206;-72
2021/10/19 04:49:07;;;;;;;18.50;14.75;;;11.10;99.90;;;;;;4936742;29;20273;-72
2021/10/19 04:51:34;;;;;;;20.10;15.10;;;11.10;99.90;;;;;;4936823;29;20232;-72
2021/10/19 04:54:02;;;;;;;24.92;16.70;;;11.20;99.90;;;;;;4936258;29;20210;-72
2021/10/19 04:56:28;;;;;;;21.10;15.60;;;11.20;99.90;;;;;;4936633;29;20633;-72
2021/10/19 04:58:55;;;;;;;20.23;16.35;;;11.20;99.90;;;;;;4934355;29;20698;-72
2021/10/19 05:01:21;;;;;;;20.30;15.20;;;11.20;99.90;;;;;;4938955;29;20234;-72
2021/10/19 05:03:48;;;;;;;20.80;16.00;;;11.20;99.90;;;;;;4937452;29;20210;-72
2021/10/19 05:06:16;;;;;;;19.77;15.23;;;11.20;99.90;;;;;;4936885;29;20261;-72
2021/10/19 05:08:43;;;;;;;19.38;14.00;;;11.20;99.90;;;;;;4936755;29;20606;-72
2021/10/19 05:11:11;;;;;;;19.23;15.07;;;11.20;99.90;;;;;;4936139;29;20292;-72
2021/10/19 05:13:38;;;;;;;17.27;15.05;;;11.20;99.90;;;;;;4936852;29;20210;-72
2021/10/19 05:16:05;;;;;;;25.75;15.25;;;11.30;99.90;;;;;;4936983;29;20228;-72
2021/10/19 05:18:32;;;;;;;20.95;16.85;;;11.30;99.90;;;;;;4936903;29;20225;-72
2021/10/19 05:20:59;;;;;;;19.45;14.70;;;11.30;99.90;;;;;;4936050;29;20661;-72
2021/10/19 05:23:26;;;;;;;18.75;14.85;;;11.40;99.90;;;;;;4936244;29;20289;-71
2021/10/19 05:25:52;;;;;;;21.48;16.08;;;11.40;99.90;;;;;;4935669;29;20659;-71
2021/10/19 05:28:20;;;;;;;18.70;14.98;;;11.40;99.90;;;;;;4936774;29;20653;-71
2021/10/19 05:30:47;;;;;;;20.95;16.00;;;11.40;99.90;;;;;;4932248;29;20766;-71
2021/10/19 05:33:14;;;;;;;20.67;15.75;;;11.40;99.90;;;;;;4917272;29;20210;-71
2021/10/19 05:35:40;;;;;;;20.45;14.77;;;11.50;99.90;;;;;;4932318;29;20300;-72
2021/10/19 05:38:07;;;;;;;19.80;15.18;;;11.50;99.90;;;;;;4936808;29;20277;-72
2021/10/19 05:40:34;;;;;;;20.33;14.40;;;11.50;99.90;;;;;;4935746;29;20226;-72
2021/10/19 05:43:00;;;;;;;19.33;14.95;;;11.60;99.90;;;;;;4925190;29;20222;-73
2021/10/19 05:45:28;;;;;;;21.35;15.95;;;11.60;99.90;;;;;;4935835;29;20201;-72
2021/10/19 05:47:55;;;;;;;15.48;13.77;;;11.60;99.90;;;;;;4935890;29;20206;-73
2021/10/19 05:50:21;;;;;;;21.75;14.95;;;11.60;99.90;;;;;;4935956;29;20253;-72
2021/10/19 05:52:48;;;;;;;18.50;16.48;;;11.60;99.90;;;;;;4935232;29;20288;-72
2021/10/19 05:55:15;;;;;;;18.52;15.45;;;11.60;99.90;;;;;;4935704;29;20616;-72
2021/10/19 05:57:42;;;;;;;20.70;14.82;;;11.60;99.90;;;;;;4935474;29;20226;-72
2021/10/19 06:00:09;;;;;;;18.30;15.65;;;11.60;99.90;;;;;;4935363;29;20213;-72
2021/10/19 06:02:37;;;;;;;20.02;14.52;;;11.60;99.90;;;;;;4935542;29;20285;-72
2021/10/19 06:05:05;;;;;;;20.40;16.00;;;11.60;99.90;;;;;;4935633;29;20214;-71
2021/10/19 06:07:31;;;;;;;20.13;14.45;;;11.60;99.90;;;;;;4935551;29;20257;-72
2021/10/19 06:09:58;;;;;;;17.05;14.75;;;11.60;99.90;;;;;;4935285;29;20205;-72
2021/10/19 06:12:25;;;;;;;24.67;15.63;;;11.70;99.90;;;;;;4935024;29;20230;-72
2021/10/19 06:14:51;;;;;;;19.55;14.85;;;11.70;99.90;;;;;;4935472;29;20285;-72
2021/10/19 06:17:18;;;;;;;20.42;13.93;;;11.70;99.90;;;;;;4935732;29;20214;-72
2021/10/19 06:19:47;;;;;;;19.33;13.77;;;11.70;99.90;;;;;;4933952;29;20205;-72
2021/10/19 06:22:14;;;;;;;20.25;14.60;;;11.70;99.90;;;;;;4915980;29;20235;-71
2021/10/19 06:24:41;;;;;;;17.48;14.30;;;11.70;99.90;;;;;;4928022;29;20265;-72
2021/10/19 06:27:07;;;;;;;17.83;14.15;;;11.80;99.90;;;;;;4934983;29;20218;-72
2021/10/19 06:29:34;;;;;;;20.40;15.13;;;11.80;99.90;;;;;;4935129;29;20202;-72
2021/10/19 06:32:01;;;;;;;19.70;14.55;;;11.80;99.90;;;;;;4934437;29;20883;-71
2021/10/19 06:34:27;;;;;;;17.75;13.65;;;11.80;99.90;;;;;;4934939;29;20210;-71
2021/10/19 06:36:55;;;;;;;20.23;15.43;;;11.90;99.90;;;;;;4935118;29;20206;-71
2021/10/19 06:39:22;;;;;;;18.48;13.57;;;11.90;99.90;;;;;;4935885;29;20237;-72
2021/10/19 06:41:49;;;;;;;22.58;15.02;;;11.90;99.90;;;;;;4935877;29;20230;-72
2021/10/19 06:44:16;;;;;;;17.58;14.98;;;12.00;99.90;;;;;;4936389;29;20695;-73
2021/10/19 06:46:43;;;;;;;17.93;14.10;;;12.00;99.90;;;;;;4938387;29;20206;-73
2021/10/19 06:49:11;;;;;;;18.88;13.57;;;12.10;99.90;;;;;;4937788;29;20540;-72
2021/10/19 06:51:38;;;;;;;18.50;14.50;;;12.10;99.90;;;;;;4937757;29;20254;-73
2021/10/19 06:54:06;;;;;;;17.70;14.80;;;12.20;99.90;;;;;;4937501;29;20466;-73
2021/10/19 06:56:32;;;;;;;18.57;14.67;;;12.20;99.90;;;;;;4938540;29;20513;-73
2021/10/19 06:58:59;;;;;;;17.97;13.57;;;12.30;99.90;;;;;;4928404;29;20486;-72
2021/10/19 07:01:26;;;;;;;18.03;13.87;;;12.40;99.90;;;;;;4938065;29;20524;-72
2021/10/19 07:03:52;;;;;;;17.57;14.40;;;12.40;99.90;;;;;;4937670;29;21005;-73
2021/10/19 07:06:19;;;;;;;17.37;14.80;;;12.40;99.90;;;;;;4937662;29;20474;-73
2021/10/19 07:08:46;;;;;;;18.33;14.07;;;12.50;99.90;;;;;;4937017;29;20965;-73
2021/10/19 07:11:14;;;;;;;15.70;12.93;;;12.50;99.90;;;;;;4937662;29;20792;-72
2021/10/19 07:13:40;;;;;;;18.80;14.07;;;12.50;99.90;;;;;;4935557;29;20973;-70
2021/10/19 07:16:07;;;;;;;14.20;12.73;;;12.60;99.90;;;;;;4934454;29;20469;-71
2021/10/19 07:18:34;;;;;;;18.83;13.50;;;12.60;99.90;;;;;;4932131;29;20482;-70
2021/10/19 07:21:01;;;;;;;18.67;13.80;;;12.60;99.90;;;;;;4930917;29;20489;-70
2021/10/19 07:23:28;;;;;;;19.50;13.57;;;12.60;99.90;;;;;;4936537;29;20493;-69
2021/10/19 07:25:54;;;;;;;17.23;13.60;;;12.70;99.90;;;;;;4945578;29;20521;-69
2021/10/19 07:28:22;;;;;;;15.13;13.30;;;12.70;99.90;;;;;;4935272;29;20470;-70
2021/10/19 07:30:49;;;;;;;16.27;13.30;;;12.70;99.90;;;;;;4933736;29;20817;-69
2021/10/19 07:33:16;;;;;;;15.90;12.83;;;12.80;99.90;;;;;;4939374;28;20695;-72
2021/10/19 07:35:43;;;;;;;15.20;13.30;;;12.80;99.90;;;;;;4943909;29;20497;-71
2021/10/19 07:38:11;;;;;;;16.47;13.67;;;12.90;99.90;;;;;;4935935;29;20529;-72
2021/10/19 07:40:38;;;;;;;18.33;13.63;;;12.90;99.90;;;;;;4951842;29;20532;-72
2021/10/19 07:43:05;;;;;;;15.47;12.93;;;12.90;99.90;;;;;;4947584;29;20875;-71
2021/10/19 07:45:34;;;;;;;17.63;13.33;;;13.00;99.90;;;;;;4947015;29;20473;-71
2021/10/19 07:48:01;;;;;;;16.10;13.20;;;13.00;99.90;;;;;;4938495;29;20545;-72
2021/10/19 07:50:30;;;;;;;15.57;12.70;;;13.10;99.90;;;;;;4938985;29;20491;-72
2021/10/19 07:52:57;;;;;;;13.43;11.40;;;13.10;99.90;;;;;;4938710;29;20470;-72
2021/10/19 07:55:26;;;;;;;16.80;12.83;;;13.20;99.90;;;;;;4952351;28;20988;-72
2021/10/19 07:57:54;;;;;;;15.27;12.73;;;13.30;99.90;;;;;;4960511;29;20465;-72
2021/10/19 08:00:23;;;;;;;15.13;12.30;;;13.30;99.90;;;;;;4956324;29;20627;-72
2021/10/19 08:02:52;;;;;;;14.07;12.57;;;13.40;99.90;;;;;;4959474;29;20592;-72
2021/10/19 08:05:19;;;;;;;13.90;12.33;;;13.50;99.90;;;;;;4949586;29;20589;-68
2021/10/19 08:07:48;;;;;;;14.80;12.73;;;13.60;99.90;;;;;;4940914;29;20469;-68
2021/10/19 08:10:17;;;;;;;12.60;11.30;;;13.70;99.90;;;;;;4931908;29;20461;-71
2021/10/19 08:12:44;;;;;;;13.90;11.80;;;13.80;99.90;;;;;;4933520;29;20536;-69
2021/10/19 08:15:11;;;;;;;14.13;12.50;;;13.90;99.90;;;;;;4937308;29;20537;-69
2021/10/19 08:17:38;;;;;;;12.87;11.57;;;13.90;99.90;;;;;;4937704;29;20477;-70
2021/10/19 08:20:07;;;;;;;12.63;10.90;;;14.00;99.90;;;;;;4945811;29;20536;-69
2021/10/19 08:22:34;;;;;;;13.63;12.10;;;14.00;99.90;;;;;;4931855;29;20457;-71
2021/10/19 08:25:03;;;;;;;13.17;11.77;;;14.10;99.90;;;;;;4952678;29;20465;-72
2021/10/19 08:27:30;;;;;;;13.10;11.70;;;14.20;99.90;;;;;;4953401;29;20468;-72
2021/10/19 08:29:56;;;;;;;14.03;11.50;;;14.20;99.90;;;;;;4941365;28;20481;-72
2021/10/19 08:32:23;;;;;;;14.70;12.63;;;14.20;99.90;;;;;;4945779;29;20488;-72
2021/10/19 08:34:50;;;;;;;12.63;11.33;;;14.20;99.90;;;;;;4944231;29;20800;-72
2021/10/19 08:37:17;;;;;;;11.70;10.47;;;14.30;99.90;;;;;;4952888;29;20468;-72
2021/10/19 08:39:44;;;;;;;13.17;11.87;;;14.40;99.90;;;;;;4941159;29;20556;-72
2021/10/19 08:42:13;;;;;;;12.23;11.03;;;14.40;99.90;;;;;;4935725;29;21028;-71
2021/10/19 08:44:41;;;;;;;13.00;11.37;;;14.50;99.90;;;;;;4936565;29;20474;-72
2021/10/19 08:47:08;;;;;;;13.40;12.00;;;14.50;99.90;;;;;;4940736;29;20469;-72
2021/10/19 08:49:34;;;;;;;14.73;13.33;;;14.60;99.90;;;;;;4938151;29;20942;-72
2021/10/19 08:52:01;;;;;;;13.07;11.80;;;14.60;99.90;;;;;;4943047;29;20489;-71
2021/10/19 08:54:29;;;;;;;12.60;10.87;;;14.60;99.90;;;;;;4944855;28;20456;-72
2021/10/19 08:56:56;;;;;;;11.97;10.83;;;14.60;99.90;;;;;;4936361;29;20521;-72
2021/10/19 08:59:23;;;;;;;13.27;11.23;;;14.60;99.90;;;;;;4933884;29;20485;-72
2021/10/19 09:01:54;;;;;;;13.27;11.93;;;14.60;99.90;;;;;;4934301;29;20548;-72
2021/10/19 09:04:21;;;;;;;13.00;11.70;;;14.70;99.90;;;;;;4935830;29;20954;-71
2021/10/19 09:06:48;;;;;;;12.60;10.70;;;14.70;99.90;;;;;;4936690;29;20476;-71
2021/10/19 09:09:16;;;;;;;13.50;12.03;;;14.70;99.90;;;;;;4934551;29;21017;-71
2021/10/19 09:11:46;;;;;;;12.53;11.43;;;14.80;99.90;;;;;;4936302;29;20521;-71
2021/10/19 09:14:14;;;;;;;12.17;10.97;;;14.80;99.90;;;;;;4936211;29;20512;-71
2021/10/19 09:16:42;;;;;;;15.77;11.40;;;14.80;99.90;;;;;;4935004;29;20493;-71
2021/10/19 09:19:09;;;;;;;12.23;10.70;;;14.80;99.90;;;;;;4934597;29;20827;-73
2021/10/19 09:21:36;;;;;;;12.10;10.80;;;14.80;99.90;;;;;;4927543;29;21084;-73
2021/10/19 09:24:25;;;;;;;14.97;12.00;;;14.90;99.90;;;;;;4934078;29;20469;-73
2021/10/19 09:27:01;;;;;;;11.57;10.33;;;14.90;99.90;;;;;;4935282;29;20565;-73
2021/10/19 09:29:30;;;;;;;13.33;11.03;;;14.90;99.90;;;;;;4936635;29;20476;-72
2021/10/19 09:31:59;;;;;;;11.97;10.90;;;14.90;99.90;;;;;;4936114;29;20493;-72
2021/10/19 09:34:29;;;;;;;12.50;10.67;;;14.90;99.90;;;;;;4935387;29;20871;-73
2021/10/19 09:36:56;;;;;;;11.90;10.80;;;15.00;99.90;;;;;;4935102;28;20937;-72
2021/10/19 09:39:34;;;;;;;15.70;10.53;;;15.10;99.90;;;;;;4943029;29;20531;-73
2021/10/19 09:42:05;;;;;;;12.40;11.10;;;15.10;99.90;;;;;;4939387;28;20816;-72
2021/10/19 09:44:31;;;;;;;11.37;10.33;;;15.20;99.90;;;;;;4935895;29;20478;-73
2021/10/19 09:47:00;;;;;;;12.17;10.90;;;15.20;99.90;;;;;;4945872;29;20539;-73
2021/10/19 09:49:28;;;;;;;11.80;10.60;;;15.30;99.90;;;;;;4949764;29;20548;-72
2021/10/19 09:51:57;;;;;;;11.23;10.03;;;15.30;99.90;;;;;;4944905;29;20521;-72
2021/10/19 09:54:27;;;;;;;13.03;11.40;;;15.30;99.90;;;;;;4935790;29;20525;-72
2021/10/19 09:56:56;;;;;;;12.60;11.17;;;15.30;99.90;;;;;;4944812;29;20930;-71
2021/10/19 09:59:24;;;;;;;11.60;10.10;;;15.40;99.90;;;;;;4941926;29;20899;-69
2021/10/19 10:01:51;;;;;;;11.97;10.50;;;15.40;99.90;;;;;;4941443;29;20999;-69
2021/10/19 10:04:21;;;;;;;12.47;10.80;;;15.50;99.90;;;;;;4942491;29;20465;-69
2021/10/19 10:06:48;;;;;;;11.07;9.93;;;15.60;99.90;;;;;;4948006;28;20465;-70
2021/10/19 10:09:15;;;;;;;11.20;10.10;;;15.70;99.90;;;;;;4940770;29;20489;-72
2021/10/19 10:11:42;;;;;;;11.67;10.50;;;15.80;99.90;;;;;;4935564;29;20569;-72
2021/10/19 10:14:11;;;;;;;11.50;10.40;;;15.90;99.90;;;;;;4940615;29;20956;-74
2021/10/19 10:16:46;;;;;;;9.70;8.77;;;15.90;99.90;;;;;;4947395;29;20466;-73
2021/10/19 10:19:15;;;;;;;11.57;10.40;;;16.00;99.90;;;;;;4940059;29;20496;-73
2021/10/19 10:21:47;;;;;;;10.73;9.73;;;16.10;99.90;;;;;;4937458;29;20485;-73
2021/10/19 10:24:14;;;;;;;10.37;9.50;;;16.10;99.90;;;;;;4935709;29;20469;-70
2021/10/19 10:26:41;;;;;;;9.60;8.60;;;16.10;99.90;;;;;;4936183;29;20457;-70
2021/10/19 10:29:10;;;;;;;11.60;10.50;;;16.10;99.90;;;;;;4938983;29;20473;-70
2021/10/19 10:31:50;;;;;;;9.17;8.37;;;16.10;99.90;;;;;;4941512;29;20543;-70
2021/10/19 10:34:17;;;;;;;9.90;9.20;;;16.20;99.90;;;;;;4952615;29;20539;-70
2021/10/19 10:36:47;;;;;;;9.73;8.73;;;16.30;99.90;;;;;;4942690;28;20489;-70
2021/10/19 10:39:14;;;;;;;9.90;8.97;;;16.40;99.90;;;;;;4941814;29;20492;-70
2021/10/19 10:41:43;;;;;;;9.40;8.53;;;16.40;99.90;;;;;;4951618;29;20525;-69
2021/10/19 10:44:12;;;;;;;9.97;8.57;;;16.50;99.90;;;;;;4935420;29;20481;-71
2021/10/19 10:46:40;;;;;;;9.10;8.40;;;16.60;99.90;;;;;;4935757;29;21026;-71
2021/10/19 10:49:12;;;;;;;9.53;8.63;;;16.70;99.90;;;;;;4935415;29;20474;-72
2021/10/19 10:51:40;;;;;;;9.20;8.40;;;16.70;99.90;;;;;;4942342;29;20512;-73
2021/10/19 10:54:07;;;;;;;9.13;8.30;;;16.80;99.90;;;;;;4953754;28;20506;-72
2021/10/19 10:56:43;;;;;;;8.60;7.80;;;16.70;99.90;;;;;;4953851;28;20527;-69
2021/10/19 10:59:09;;;;;;;9.10;8.40;;;16.70;99.90;;;;;;4953884;28;20612;-69
2021/10/19 11:01:36;;;;;;;8.80;8.00;;;16.70;99.90;;;;;;4948023;29;20560;-69
2021/10/19 11:04:05;;;;;;;7.83;7.33;;;16.70;99.90;;;;;;4935206;29;20828;-69
2021/10/19 11:06:35;;;;;;;8.47;7.70;;;16.70;99.90;;;;;;4935491;29;20465;-69
2021/10/19 11:09:05;;;;;;;8.23;7.40;;;16.80;99.90;;;;;;4935456;29;20517;-69
2021/10/19 11:11:35;;;;;;;8.03;7.30;;;16.80;99.90;;;;;;4917739;29;20494;-69
2021/10/19 11:14:04;;;;;;;9.17;8.27;;;16.80;99.90;;;;;;4918175;29;20944;-70
2021/10/19 11:16:33;;;;;;;8.83;8.03;;;16.70;99.90;;;;;;4919290;29;20475;-69
2021/10/19 11:19:01;;;;;;;8.57;7.80;;;16.70;99.90;;;;;;4941414;29;20476;-70
2021/10/19 11:21:28;;;;;;;8.80;8.03;;;16.70;99.90;;;;;;4956552;29;20642;-69
2021/10/19 11:23:57;;;;;;;8.30;7.60;;;16.70;99.90;;;;;;4945419;29;20469;-69
2021/10/19 11:26:24;;;;;;;8.90;8.10;;;16.80;99.90;;;;;;4947048;29;20469;-68
2021/10/19 11:28:54;;;;;;;8.67;7.83;;;16.80;99.90;;;;;;4956130;29;20970;-68
2021/10/19 11:31:22;;;;;;;8.57;7.80;;;16.80;99.90;;;;;;4947851;29;20527;-68
2021/10/19 11:33:49;;;;;;;8.97;8.07;;;16.70;99.90;;;;;;4957578;29;20487;-68
2021/10/19 11:36:16;;;;;;;9.47;7.93;;;16.70;99.90;;;;;;4940107;29;20474;-68
2021/10/19 11:38:44;;;;;;;8.40;7.70;;;16.60;99.90;;;;;;4937749;29;20504;-68
2021/10/19 11:41:14;;;;;;;8.07;7.20;;;16.60;99.90;;;;;;4939083;29;20556;-68
2021/10/19 11:43:42;;;;;;;8.50;7.60;;;16.60;99.90;;;;;;4941162;29;20456;-71
2021/10/19 11:46:11;;;;;;;9.17;8.27;;;16.50;99.90;;;;;;4955417;29;20585;-72
2021/10/19 11:48:39;;;;;;;7.90;7.20;;;16.50;99.90;;;;;;4937110;29;20501;-71
2021/10/19 11:51:11;;;;;;;9.10;8.30;;;16.50;99.90;;;;;;4950300;29;20496;-72
2021/10/19 11:53:38;;;;;;;8.20;7.60;;;16.60;99.90;;;;;;4943848;29;20869;-72
2021/10/19 11:56:06;;;;;;;7.70;7.10;;;16.60;99.90;;;;;;4938113;29;20476;-73
2021/10/19 11:58:34;;;;;;;10.17;7.77;;;16.60;99.90;;;;;;4938228;29;20473;-73
2021/10/19 12:01:01;;;;;;;7.87;7.07;;;16.60;99.90;;;;;;4938213;29;20504;-72
2021/10/19 12:03:31;;;;;;;9.87;9.03;;;16.50;99.90;;;;;;4938415;29;20470;-72
2021/10/19 12:06:12;;;;;;;8.47;7.73;;;16.50;99.90;;;;;;4938358;29;20469;-72
2021/10/19 12:08:42;;;;;;;8.33;7.63;;;16.50;99.90;;;;;;4937720;29;20524;-71
2021/10/19 12:11:11;;;;;;;9.37;8.47;;;16.40;99.90;;;;;;4927289;29;20491;-72
2021/10/19 12:13:39;;;;;;;9.33;8.53;;;16.40;99.90;;;;;;4918768;29;20911;-74
2021/10/19 12:16:07;;;;;;;7.97;7.20;;;16.30;99.90;;;;;;4918828;29;20470;-71
2021/10/19 12:18:42;;;;;;;8.40;7.53;;;16.30;99.90;;;;;;4918996;29;20466;-72
2021/10/19 12:21:09;;;;;;;8.77;8.07;;;16.30;99.90;;;;;;4919631;29;20533;-71
2021/10/19 12:23:38;;;;;;;8.50;7.90;;;16.30;99.90;;;;;;4944151;29;20540;-72
2021/10/19 12:26:09;;;;;;;9.57;8.67;;;16.40;99.90;;;;;;4937176;29;20500;-72
2021/10/19 12:28:36;;;;;;;8.60;7.80;;;16.40;99.90;;;;;;4937693;29;20587;-72
2021/10/19 12:31:04;;;;;;;9.17;8.37;;;16.40;99.90;;;;;;4936374;29;20488;-72
2021/10/19 12:33:31;;;;;;;9.13;8.43;;;16.40;99.90;;;;;;4937748;29;20528;-72
2021/10/19 12:36:01;;;;;;;9.37;8.47;;;16.50;99.90;;;;;;4937559;29;20947;-73
2021/10/19 12:38:31;;;;;;;10.13;9.23;;;16.50;99.90;;;;;;4937810;29;20509;-73
2021/10/19 12:41:07;;;;;;;9.63;8.67;;;16.40;99.90;;;;;;4937115;29;20544;-72
2021/10/19 12:43:34;;;;;;;8.90;8.20;;;16.50;99.90;;;;;;4937185;29;20556;-72
2021/10/19 12:46:01;;;;;;;8.77;8.10;;;16.50;99.90;;;;;;4937464;29;20837;-73
2021/10/19 12:48:33;;;;;;;10.50;9.40;;;16.40;99.90;;;;;;4937931;29;20505;-73
2021/10/19 12:51:01;;;;;;;9.80;8.77;;;16.40;99.90;;;;;;4937092;29;20828;-72
2021/10/19 12:53:28;;;;;;;9.90;8.87;;;16.30;99.90;;;;;;4937292;29;20565;-73
2021/10/19 12:55:55;;;;;;;9.60;8.67;;;16.20;99.90;;;;;;4936802;29;20473;-72
2021/10/19 12:58:22;;;;;;;9.67;8.73;;;16.20;99.90;;;;;;4937474;29;20865;-72
2021/10/19 13:00:48;;;;;;;8.47;7.87;;;16.10;99.90;;;;;;4936548;29;20902;-72
2021/10/19 13:03:15;;;;;;;8.70;7.90;;;16.00;99.90;;;;;;4936663;29;20822;-72
2021/10/19 13:05:44;;;;;;;9.30;8.27;;;16.10;99.90;;;;;;4936723;29;20520;-72
2021/10/19 13:08:11;;;;;;;8.93;8.13;;;16.00;99.90;;;;;;4939499;29;20534;-71
2021/10/19 13:10:37;;;;;;;8.63;7.70;;;16.00;99.90;;;;;;4937740;29;20494;-71
2021/10/19 13:13:04;;;;;;;9.13;8.33;;;16.00;99.90;;;;;;4950586;29;20490;-69
2021/10/19 13:15:31;;;;;;;9.67;8.47;;;16.00;99.90;;;;;;4950016;29;20520;-70
2021/10/19 13:17:57;;;;;;;9.90;8.90;;;16.10;99.90;;;;;;4936591;29;20469;-71
2021/10/19 13:20:24;;;;;;;9.50;8.60;;;16.10;99.90;;;;;;4932729;29;20509;-71
2021/10/19 13:22:52;;;;;;;8.50;7.83;;;16.10;99.90;;;;;;4949163;28;20469;-69
2021/10/19 13:25:19;;;;;;;8.57;7.93;;;16.00;99.90;;;;;;4946909;29;20465;-69
2021/10/19 13:27:46;;;;;;;9.73;8.13;;;16.00;99.90;;;;;;4936882;29;20474;-69
2021/10/19 13:30:13;;;;;;;8.70;8.00;;;16.00;99.90;;;;;;4936379;29;20458;-70
2021/10/19 13:32:40;;;;;;;9.17;8.40;;;15.90;99.90;;;;;;4935100;29;20596;-69
2021/10/19 13:35:07;;;;;;;8.60;7.80;;;15.90;99.90;;;;;;4940905;29;20895;-69
2021/10/19 13:37:34;;;;;;;7.93;7.30;;;16.00;99.90;;;;;;4936902;29;20469;-70
2021/10/19 13:40:03;;;;;;;7.97;7.30;;;16.00;99.90;;;;;;4940936;29;20476;-69
2021/10/19 13:42:30;;;;;;;8.57;7.73;;;15.90;99.90;;;;;;4954520;28;20492;-70
2021/10/19 13:44:57;;;;;;;8.60;7.90;;;16.00;99.90;;;;;;4949258;29;20480;-70
2021/10/19 13:47:25;;;;;;;7.63;6.97;;;15.90;99.90;;;;;;4946676;28;20488;-71
2021/10/19 13:49:52;;;;;;;8.40;7.70;;;15.90;99.90;;;;;;4922241;29;20476;-70
2021/10/19 13:52:19;;;;;;;8.10;7.30;;;15.90;99.90;;;;;;4935347;29;20494;-69
2021/10/19 13:54:45;;;;;;;8.90;8.00;;;16.00;99.90;;;;;;4949488;29;20464;-70
2021/10/19 13:57:14;;;;;;;8.50;7.33;;;15.90;99.90;;;;;;4952246;28;20497;-69
2021/10/19 13:59:40;;;;;;;10.10;9.10;;;15.90;99.90;;;;;;4949589;29;20533;-68
2021/10/19 14:02:07;;;;;;;9.77;8.10;;;15.90;99.90;;;;;;4946247;29;20537;-69
2021/10/19 14:04:35;;;;;;;10.30;9.30;;;15.80;99.90;;;;;;4945789;29;20466;-68
2021/10/19 14:07:02;;;;;;;8.93;8.10;;;15.80;99.90;;;;;;4941234;29;20465;-72
2021/10/19 14:09:29;;;;;;;9.83;8.90;;;15.70;99.90;;;;;;4940273;28;20484;-71
2021/10/19 14:11:57;;;;;;;9.73;8.43;;;15.70;99.90;;;;;;4935139;29;20485;-72
2021/10/19 14:14:25;;;;;;;10.77;8.40;;;15.60;99.90;;;;;;4936639;29;20527;-72
2021/10/19 14:16:52;;;;;;;10.03;8.90;;;15.60;99.90;;;;;;4935249;29;20470;-71
2021/10/19 14:19:19;;;;;;;9.70;8.77;;;15.50;99.90;;;;;;4943330;28;20481;-69
2021/10/19 14:21:46;;;;;;;9.70;8.30;;;15.50;99.90;;;;;;4935209;29;20842;-68
2021/10/19 14:24:12;;;;;;;8.83;8.03;;;15.50;99.90;;;;;;4935243;29;20461;-68
2021/10/19 14:26:40;;;;;;;9.77;8.77;;;15.50;99.90;;;;;;4940460;29;20473;-68
2021/10/19 14:29:07;;;;;;;9.77;8.97;;;15.50;99.90;;;;;;4942421;29;20548;-69
2021/10/19 14:31:35;;;;;;;10.27;8.23;;;15.50;99.90;;;;;;4934923;29;20485;-70
2021/10/19 14:34:02;;;;;;;9.20;8.30;;;15.40;99.90;;;;;;4936535;29;20470;-70
2021/10/19 14:36:29;;;;;;;9.33;8.37;;;15.50;99.90;;;;;;4946605;29;20826;-69
2021/10/19 14:38:55;;;;;;;7.77;7.10;;;15.40;99.90;;;;;;4925026;29;20465;-70
2021/10/19 14:41:22;;;;;;;8.50;7.80;;;15.40;99.90;;;;;;4947848;29;20531;-69
2021/10/19 14:43:49;;;;;;;9.43;8.20;;;15.40;99.90;;;;;;4945468;29;21047;-69
2021/10/19 14:46:16;;;;;;;9.83;7.97;;;15.40;99.90;;;;;;4935249;29;20954;-69
2021/10/19 14:48:44;;;;;;;8.07;7.33;;;15.30;99.90;;;;;;4935212;29;20564;-69
2021/10/19 14:51:11;;;;;;;8.93;8.03;;;15.40;99.90;;;;;;4935233;29;20814;-69
2021/10/19 14:53:38;;;;;;;9.37;7.63;;;15.30;99.90;;;;;;4933896;29;20556;-71
2021/10/19 14:56:05;;;;;;;9.57;8.77;;;15.30;99.90;;;;;;4935267;29;20520;-69
2021/10/19 14:58:33;;;;;;;9.27;8.27;;;15.30;99.90;;;;;;4938569;29;20511;-70
2021/10/19 15:00:59;;;;;;;8.33;7.10;;;15.20;99.90;;;;;;4936054;29;20572;-69
2021/10/19 15:03:26;;;;;;;8.67;7.97;;;15.20;99.90;;;;;;4934576;29;20517;-69
2021/10/19 15:05:55;;;;;;;9.00;8.20;;;15.20;99.90;;;;;;4934816;29;20476;-69
2021/10/19 15:08:22;;;;;;;9.30;7.43;;;15.20;99.90;;;;;;4934792;29;20476;-69
2021/10/19 15:10:49;;;;;;;9.40;8.53;;;15.20;99.90;;;;;;4927935;29;20549;-68
2021/10/19 15:13:15;;;;;;;7.80;7.30;;;15.10;99.90;;;;;;4924039;29;20543;-67
2021/10/19 15:15:42;;;;;;;9.63;8.80;;;15.10;99.90;;;;;;4934298;29;20488;-68
2021/10/19 15:18:09;;;;;;;8.50;7.80;;;15.10;99.90;;;;;;4934543;29;20954;-68
2021/10/19 15:20:35;;;;;;;9.50;8.60;;;15.10;99.90;;;;;;4937587;29;20496;-68
2021/10/19 15:23:03;;;;;;;9.40;8.03;;;15.10;99.90;;;;;;4945945;29;20462;-68
2021/10/19 15:25:30;;;;;;;8.90;8.10;;;15.10;99.90;;;;;;4936845;29;20517;-67
2021/10/19 15:27:57;;;;;;;8.20;7.50;;;15.00;99.90;;;;;;4938689;29;20512;-67
2021/10/19 15:30:24;;;;;;;9.20;8.50;;;15.00;99.90;;;;;;4946444;29;20471;-69
2021/10/19 15:32:51;;;;;;;8.73;8.03;;;15.00;99.90;;;;;;4940922;29;20480;-71
2021/10/19 15:35:17;;;;;;;9.80;8.90;;;14.90;99.90;;;;;;4944935;29;20469;-67
2021/10/19 15:37:44;;;;;;;11.90;9.20;;;14.90;99.90;;;;;;4940227;29;20473;-67
2021/10/19 15:40:13;;;;;;;10.27;9.23;;;14.90;99.90;;;;;;4936790;29;20858;-68
2021/10/19 15:42:40;;;;;;;19.47;17.40;;;14.90;99.90;;;;;;4939548;29;20522;-67
2021/10/19 15:45:09;;;;;;;11.23;10.20;;;14.80;99.90;;;;;;4949024;29;20465;-67
2021/10/19 15:47:36;;;;;;;62.40;41.53;;;14.80;99.90;;;;;;4934311;29;20474;-68
2021/10/19 15:50:04;;;;;;;11.73;10.63;;;14.80;99.90;;;;;;4936797;29;20492;-68
2021/10/19 15:52:30;;;;;;;43.77;33.87;;;14.80;99.90;;;;;;4937267;29;20484;-68
2021/10/19 15:54:57;;;;;;;18.67;16.77;;;14.80;99.90;;;;;;4933869;29;20524;-68
2021/10/19 15:57:25;;;;;;;11.90;10.93;;;14.80;99.90;;;;;;4935481;29;20946;-68
2021/10/19 15:59:52;;;;;;;18.83;16.80;;;14.80;99.90;;;;;;4934966;28;20524;-68
2021/10/19 16:02:18;;;;;;;15.27;13.80;;;14.80;99.90;;;;;;4935621;29;20497;-69
2021/10/19 16:04:45;;;;;;;13.87;12.57;;;14.80;99.90;;;;;;4938043;28;20477;-68
2021/10/19 16:07:16;;;;;;;11.73;10.70;;;14.80;99.90;;;;;;4937473;29;20524;-69
2021/10/19 16:09:42;;;;;;;13.10;12.00;;;14.70;99.90;;;;;;4931696;29;20474;-68
2021/10/19 16:12:09;;;;;;;12.53;11.23;;;14.70;99.90;;;;;;4936343;29;21032;-68
2021/10/19 16:14:37;;;;;;;11.87;10.83;;;14.70;99.90;;;;;;4932414;29;20481;-68
2021/10/19 16:19:39;;;;;;;15.23;13.83;;;14.70;99.90;;;;;;5294243;23;20594;-71
2021/10/19 16:22:06;;;;;;;13.43;12.23;;;14.60;99.90;;;;;;4950809;28;20548;-71
2021/10/19 16:24:33;;;;;;;10.83;9.90;;;14.60;99.90;;;;;;4967189;28;20539;-70
2021/10/19 16:27:01;;;;;;;14.97;13.77;;;14.60;99.90;;;;;;4954594;28;20539;-71
2021/10/19 16:29:28;;;;;;;17.93;16.13;;;14.60;99.90;;;;;;4948838;28;22406;-71
2021/10/19 16:31:56;;;;;;;12.20;11.07;;;14.60;99.90;;;;;;4940396;28;20473;-71
2021/10/19 16:34:23;;;;;;;12.07;11.07;;;14.60;99.90;;;;;;4937577;28;20954;-70
2021/10/19 16:36:50;;;;;;;12.00;10.80;;;14.60;99.90;;;;;;4945048;28;20478;-70
2021/10/19 16:39:17;;;;;;;11.10;10.10;;;14.50;99.90;;;;;;4940382;28;20485;-69
2021/10/19 16:41:44;;;;;;;12.93;11.80;;;14.50;99.90;;;;;;4944415;28;20484;-72